Time;durP1;ratioP1;P1;durP2;ratioP2;P2;SDS_P1;SDS_P2;PMS_P1;PMS_P2;Temp;Humidity;BMP_temperature;BMP_pressure;BME280_temperature;BME280_humidity;BME280_pressure;Samples;Min_cycle;Max_cycle;Signal;HPM_P1;HPM_P2
2022/02/01 00:02:16;;;;;;;18.00;7.05;;;;;;;1.45;43.08;92133.94;5037035;28;20044;-88
2022/02/01 00:11:36;;;;;;;19.88;6.30;;;;;;;1.44;42.89;92134.97;5017480;28;20103;-89
2022/02/01 00:14:35;;;;;;;15.07;5.93;;;;;;;1.94;42.34;92215.06;4988715;28;20044;-89
2022/02/01 00:17:38;;;;;;;12.88;5.07;;;;;;;1.95;42.38;92222.53;5017279;28;20036;-90
2022/02/01 00:36:17;;;;;;;8.90;3.83;;;;;;;2.00;41.87;92225.19;4940735;29;20067;-90
2022/02/01 00:39:02;;;;;;;13.73;4.70;;;;;;;1.92;41.78;92224.84;4958997;28;20203;-89
2022/02/01 00:41:33;;;;;;;12.43;5.07;;;;;;;1.90;41.79;92229.47;4989727;28;20049;-89
2022/02/01 00:44:35;;;;;;;10.25;4.13;;;;;;;1.57;42.01;92190.56;5018967;28;20092;-89
2022/02/01 00:47:13;;;;;;;12.80;4.45;;;;;;;1.74;42.43;92218.94;5028052;28;20495;-87
2022/02/01 00:50:12;;;;;;;10.77;4.68;;;;;;;1.75;42.82;92217.13;5018872;28;20038;-90
2022/02/01 00:52:56;;;;;;;10.63;3.90;;;;;;;1.49;42.38;92165.19;5016454;28;20549;-90
2022/02/01 00:55:40;;;;;;;;;;;;;;;;;;;;;
2022/02/01 00:58:18;;;;;;;10.00;3.85;;;;;;;1.83;42.20;92212.34;5001538;28;20041;-89
2022/02/01 01:01:24;;;;;;;16.95;4.18;;;;;;;1.59;42.05;92183.38;5002993;28;20056;-89
2022/02/01 01:04:30;;;;;;;8.25;2.90;;;;;;;1.58;42.21;92168.16;5016272;28;20044;-89
2022/02/01 01:07:14;;;;;;;7.63;3.15;;;;;;;1.48;42.50;92179.09;5016030;28;20049;-88
2022/02/01 01:10:09;;;;;;;10.02;2.83;;;;;;;1.64;42.15;92174.91;5000182;28;20049;-88
2022/02/01 01:12:58;;;;;;;9.07;3.03;;;;;;;1.70;42.04;92199.00;5000837;28;20037;-88
2022/02/01 01:15:39;;;;;;;8.85;3.40;;;;;;;1.42;43.11;92178.25;5017686;28;20041;-89
2022/02/01 01:44:22;;;;;;;9.90;3.80;;;;;;;1.77;43.31;92266.72;5014992;28;20128;-89
2022/02/01 01:53:16;;;;;;;11.27;4.82;;;;;;;1.06;43.65;92158.13;5032811;28;20029;-89
2022/02/01 01:56:06;;;;;;;13.80;4.72;;;;;;;1.52;43.90;92244.69;5015376;28;20041;-89
2022/02/01 01:59:03;;;;;;;;;;;;;;;;;;;;;
2022/02/01 02:01:44;;;;;;;14.35;4.82;;;;;;;1.37;44.43;92216.88;5016993;28;20060;-88
2022/02/01 02:04:43;;;;;;;;;;;;;;;;;;;;;
2022/02/01 02:07:41;;;;;;;;;;;;;;;;;;;;;
2022/02/01 02:10:45;;;;;;;9.23;4.13;;;;;;;1.31;44.18;92243.63;5015878;28;20029;-89
2022/02/01 02:16:31;;;;;;;;;;;;;;;;;;;;;
2022/02/01 02:19:03;;;;;;;12.77;4.50;;;;;;;0.90;44.28;92211.25;5053497;28;20067;-88
2022/02/01 02:22:06;;;;;;;9.70;3.78;;;;;;;1.23;44.55;92256.88;5036026;28;20041;-90
2022/02/01 02:24:50;;;;;;;11.07;3.92;;;;;;;1.16;44.76;92251.09;5007343;28;20053;-89
2022/02/01 02:27:24;;;;;;;11.23;4.68;;;;;;;0.81;45.36;92188.44;5000651;28;20494;-89
2022/02/01 02:29:59;;;;;;;11.55;4.40;;;;;;;0.87;44.82;92202.19;5015441;28;20544;-88
2022/02/01 02:32:37;;;;;;;10.60;4.25;;;;;;;0.93;44.38;92190.94;5029296;28;20609;-89
2022/02/01 02:35:18;;;;;;;;;;;;;;;;;;;;;
2022/02/01 02:38:11;;;;;;;13.13;4.60;;;;;;;0.97;44.44;92194.63;5028881;28;20136;-89
2022/02/01 02:46:49;;;;;;;;;;;;;;;;;;;;;
2022/02/01 02:49:22;;;;;;;10.30;3.97;;;;;;;1.28;43.57;92246.66;5016050;28;20450;-90
2022/02/01 02:52:30;;;;;;;;;;;;;;;;;;;;;
2022/02/01 02:55:34;;;;;;;14.18;4.95;;;;;;;1.26;44.15;92253.81;5033625;28;20124;-90
2022/02/01 02:58:37;;;;;;;;;;;;;;;;;;;;;
2022/02/01 03:01:16;;;;;;;13.32;5.28;;;;;;;1.00;44.74;92222.50;5020153;28;20131;-89
2022/02/01 03:04:15;;;;;;;17.10;6.15;;;;;;;1.11;44.53;92233.00;5003267;28;20077;-89
2022/02/01 03:06:49;;;;;;;15.20;6.57;;;;;;;1.14;45.01;92242.81;4991243;28;20045;-88
2022/02/01 03:09:29;;;;;;;16.40;6.20;;;;;;;0.98;45.04;92206.50;5020451;28;20037;-88
2022/02/01 03:12:18;;;;;;;;;;;;;;;;;;;;;
2022/02/01 03:15:20;;;;;;;16.30;6.13;;;;;;;1.09;45.13;92245.34;5030327;28;20096;-88
2022/02/01 03:20:56;;;;;;;7.15;3.55;;;;;;;0.88;45.49;92167.69;5034983;28;20037;-89
2022/02/01 03:23:52;;;;;;;3.20;1.80;;;;;;;1.02;43.66;92189.53;5002446;28;20120;-89
2022/02/01 03:26:28;;;;;;;5.07;2.30;;;;;;;1.25;44.55;92214.38;5019043;28;20490;-88
2022/02/01 03:29:18;;;;;;;3.28;1.70;;;;;;;0.85;43.88;92147.53;5022872;28;20048;-90
2022/02/01 03:32:07;;;;;;;;;;;;;;;;;;;;;
2022/02/01 03:34:47;;;;;;;4.55;1.40;;;;;;;1.04;44.05;92141.13;5017800;28;20438;-89
2022/02/01 03:38:06;;;;;;;1.55;0.90;;;;;;;1.60;43.10;92209.94;5020697;28;20048;-90
2022/02/01 03:40:42;;;;;;;2.00;1.10;;;;;;;1.08;43.29;92143.22;5001370;28;20124;-89
2022/02/01 03:43:15;;;;;;;2.83;1.20;;;;;;;1.21;42.71;92123.03;5002640;28;20123;-87
2022/02/01 03:45:41;;;;;;;1.48;1.02;;;;;;;1.06;43.62;92109.16;5003285;28;20044;-88
2022/02/01 03:48:24;;;;;;;;;;;;;;;;;;;;;
2022/02/01 03:51:20;;;;;;;0.43;0.43;;;;;;;0.97;44.28;92122.47;5055269;28;20060;-89
2022/02/01 03:54:20;;;;;;;0.50;0.50;;;;;;;0.99;45.08;92127.34;5023200;28;20139;-88
2022/02/01 03:57:30;;;;;;;1.35;0.70;;;;;;;1.04;44.70;92128.22;5039453;28;20051;-88
2022/02/01 04:03:04;;;;;;;0.50;0.50;;;;;;;1.03;45.06;92129.22;5018395;28;20052;-88
2022/02/01 04:05:39;;;;;;;0.40;0.40;;;;;;;0.89;45.12;92102.22;5003914;28;20037;-87
2022/02/01 04:08:18;;;;;;;;;;;;;;;;;;;;;
2022/02/01 04:11:07;;;;;;;0.40;0.40;;;;;;;1.31;43.64;92155.94;5039087;28;20048;-89
2022/02/01 04:13:34;;;;;;;0.50;0.50;;;;;;;1.29;43.90;92132.19;5022604;28;20052;-88
2022/02/01 04:16:15;;;;;;;;;;;;;;;;;;;;;
2022/02/01 04:19:12;;;;;;;0.75;0.63;;;;;;;1.53;42.74;92153.38;5007885;28;20045;-87
2022/02/01 04:22:01;;;;;;;0.70;0.50;;;;;;;1.56;43.28;92136.66;5039034;28;20037;-88
2022/02/01 04:24:46;;;;;;;0.40;0.40;;;;;;;1.16;40.86;92057.75;5038296;28;20049;-89
2022/02/01 04:27:30;;;;;;;3.40;0.50;;;;;;;1.21;41.55;92086.16;5005986;28;20048;-89
2022/02/01 04:30:22;;;;;;;0.40;0.40;;;;;;;1.19;42.17;92086.41;5036670;28;20565;-89
2022/02/01 04:32:57;;;;;;;0.50;0.50;;;;;;;1.18;42.27;92089.22;5017250;28;20033;-88
2022/02/01 04:35:40;;;;;;;0.47;0.40;;;;;;;1.21;40.99;92099.06;5002077;28;20509;-89
2022/02/01 04:38:34;;;;;;;0.40;0.40;;;;;;;1.25;41.46;92075.13;5002367;28;20128;-89
2022/02/01 04:41:27;;;;;;;0.32;0.32;;;;;;;1.52;40.99;92105.38;5004434;28;20029;-90
2022/02/01 04:44:14;;;;;;;0.40;0.40;;;;;;;1.38;42.03;92092.06;4992794;28;20041;-89
2022/02/01 04:46:47;;;;;;;0.40;0.40;;;;;;;1.22;41.96;92034.34;4991452;28;20096;-89
2022/02/01 04:49:31;;;;;;;0.45;0.45;;;;;;;1.29;41.78;92049.66;4984641;28;20079;-89
2022/02/01 04:52:14;;;;;;;1.85;0.60;;;;;;;1.58;41.50;92088.16;5000523;28;20045;-89
2022/02/01 04:54:42;;;;;;;0.40;0.40;;;;;;;1.73;40.72;92093.47;4999954;28;20091;-88
2022/02/01 04:57:16;;;;;;;0.40;0.40;;;;;;;1.60;42.05;92086.09;5000653;28;20018;-89
2022/02/01 04:59:50;;;;;;;0.40;0.40;;;;;;;1.26;41.94;92029.47;5005120;28;20512;-89
2022/02/01 05:02:21;;;;;;;0.55;0.50;;;;;;;1.26;42.76;92024.31;5037168;28;20057;-90
2022/02/01 05:04:59;;;;;;;0.85;0.60;;;;;;;1.23;42.37;92050.59;5003584;28;20044;-89
2022/02/01 05:07:32;;;;;;;1.05;0.40;;;;;;;1.32;41.88;92046.59;5009583;28;20135;-87
2022/02/01 05:10:34;;;;;;;0.40;0.40;;;;;;;1.22;41.73;92033.59;5010798;28;20040;-89
2022/02/01 05:16:17;;;;;;;0.50;0.50;;;;;;;1.67;42.91;92069.44;5017531;28;20044;-88
2022/02/01 05:19:23;;;;;;;0.50;0.50;;;;;;;1.12;41.99;92012.81;5034696;28;20045;-87
2022/02/01 05:22:31;;;;;;;0.40;0.40;;;;;;;1.37;42.05;92035.53;5034389;28;20029;-88
2022/02/01 05:25:25;;;;;;;;;;;;;;;;;;;;;
2022/02/01 05:28:18;;;;;;;0.40;0.40;;;;;;;1.40;41.55;92050.56;5040358;28;20045;-89
2022/02/01 05:31:39;;;;;;;;;;;;;;;;;;;;;
2022/02/01 05:37:28;;;;;;;0.40;0.40;;;;;;;1.61;40.61;92067.03;5040929;28;20052;-89
2022/02/01 05:40:15;;;;;;;2.70;0.50;;;;;;;1.53;40.80;91997.81;5020433;28;20072;-89
2022/02/01 05:43:05;;;;;;;;;;;;;;;1.77;40.20;92071.34;5020118;28;20057;-89
2022/02/01 05:46:01;;;;;;;0.40;0.40;;;;;;;1.58;39.79;92005.63;5016050;28;19925;-89
2022/02/01 05:49:28;;;;;;;1.48;0.60;;;;;;;1.65;38.21;91995.88;5017095;28;20045;-89
2022/02/01 05:52:06;;;;;;;0.50;0.50;;;;;;;1.43;39.30;91983.00;5002413;28;20057;-87
2022/02/01 05:54:37;;;;;;;0.40;0.40;;;;;;;1.77;38.96;92009.41;5034330;28;20041;-88
2022/02/01 05:57:05;;;;;;;0.40;0.40;;;;;;;1.70;38.44;92019.16;5044169;28;20037;-88
2022/02/01 05:59:33;;;;;;;0.60;0.50;;;;;;;1.94;38.59;92017.06;5014373;28;20040;-88
2022/02/01 06:02:07;;;;;;;2.53;0.55;;;;;;;1.48;37.46;91990.00;5011546;28;20049;-88
2022/02/01 06:04:35;;;;;;;0.40;0.40;;;;;;;1.79;37.95;92022.84;5026511;28;20052;-88
2022/02/01 06:07:04;;;;;;;0.35;0.35;;;;;;;1.76;39.33;92090.44;5050528;28;20050;-87
2022/02/01 06:09:34;;;;;;;0.40;0.40;;;;;;;1.88;36.53;92029.13;5056498;28;20125;-86
2022/02/01 06:12:05;;;;;;;3.92;0.50;;;;;;;1.70;36.56;92013.97;5052338;28;20118;-87
2022/02/01 06:14:33;;;;;;;0.52;0.50;;;;;;;1.71;36.22;91992.31;5019416;28;20120;-86
2022/02/01 06:16:59;;;;;;;0.95;0.60;;;;;;;2.16;38.13;92128.03;5038802;28;20024;-86
2022/02/01 06:19:27;;;;;;;0.45;0.45;;;;;;;1.95;37.14;92082.38;5040121;28;20059;-86
2022/02/01 06:21:52;;;;;;;0.40;0.40;;;;;;;1.80;37.03;92076.03;5023719;28;20033;-86
2022/02/01 06:24:20;;;;;;;0.40;0.40;;;;;;;1.83;35.88;92047.16;5020454;28;20438;-87
2022/02/01 06:26:49;;;;;;;2.17;0.50;;;;;;;1.83;36.32;92036.81;5040221;28;20020;-87
2022/02/01 06:29:19;;;;;;;0.30;0.30;;;;;;;1.75;38.06;92091.44;5033237;28;20056;-88
2022/02/01 06:31:45;;;;;;;0.40;0.40;;;;;;;1.81;38.75;92112.94;5006830;28;20171;-87
2022/02/01 06:34:18;;;;;;;0.40;0.40;;;;;;;2.06;37.15;92156.31;5036527;28;20120;-86
2022/02/01 06:36:44;;;;;;;0.30;0.30;;;;;;;1.52;38.27;92027.97;5058657;28;20043;-86
2022/02/01 06:39:27;;;;;;;0.35;0.35;;;;;;;1.57;37.23;92092.53;5065478;28;20028;-87
2022/02/01 06:41:56;;;;;;;0.40;0.40;;;;;;;1.55;38.61;92083.47;5041450;28;20060;-87
2022/02/01 06:44:24;;;;;;;0.60;0.50;;;;;;;1.52;39.36;92110.53;5018678;28;20049;-87
2022/02/01 06:46:57;;;;;;;0.30;0.30;;;;;;;1.73;38.19;92119.28;5035262;28;20029;-86
2022/02/01 06:49:23;;;;;;;0.50;0.40;;;;;;;1.70;37.62;92095.78;5036574;28;20087;-87
2022/02/01 06:52:01;;;;;;;;;;;;;;;;;;;;;
2022/02/01 06:54:29;;;;;;;1.10;0.50;;;;;;;1.56;37.71;92048.94;5035788;28;20033;-88
2022/02/01 06:57:00;;;;;;;0.50;0.50;;;;;;;1.54;37.51;92054.31;5001770;28;20424;-88
2022/02/01 06:59:31;;;;;;;0.38;0.38;;;;;;;1.64;35.71;92063.97;5002770;28;20045;-88
2022/02/01 07:01:59;;;;;;;0.40;0.40;;;;;;;2.15;35.78;92147.13;5019244;28;20056;-88
2022/02/01 07:04:28;;;;;;;0.50;0.50;;;;;;;2.57;35.12;92060.44;5020644;28;20036;-86
2022/02/01 07:07:07;;;;;;;0.77;0.60;;;;;;;4.60;30.44;92108.16;5053549;28;20033;-89
2022/02/01 07:09:34;;;;;;;0.50;0.50;;;;;;;5.92;28.01;92061.41;5024237;28;20041;-88
2022/02/01 07:12:03;;;;;;;0.60;0.60;;;;;;;7.43;26.72;92184.00;5018405;28;20110;-88
2022/02/01 07:14:29;;;;;;;0.40;0.40;;;;;;;7.78;26.11;92143.06;5018192;28;20075;-88
2022/02/01 07:16:58;;;;;;;1.27;0.50;;;;;;;8.36;24.09;92202.91;5001816;28;20026;-89
2022/02/01 07:19:26;;;;;;;0.45;0.43;;;;;;;8.05;23.78;92117.22;5001692;28;20051;-88
2022/02/01 07:22:03;;;;;;;0.40;0.40;;;;;;;9.97;22.57;92169.72;5018312;28;20064;-89
2022/02/01 07:24:35;;;;;;;0.40;0.40;;;;;;;8.83;22.02;92166.63;5018197;28;20092;-86
2022/02/01 07:27:22;;;;;;;0.40;0.40;;;;;;;10.08;20.81;92113.56;5020372;28;20029;-89
2022/02/01 07:29:53;;;;;;;0.50;0.50;;;;;;;9.80;20.05;92152.78;5022199;28;20088;-90
2022/02/01 07:32:43;;;;;;;0.50;0.50;;;;;;;8.75;23.02;92197.47;5029130;28;20042;-91
2022/02/01 07:35:37;;;;;;;5.53;0.65;;;;;;;10.91;19.36;92173.66;5022774;28;20042;-89
2022/02/01 07:38:28;;;;;;;3.42;0.70;;;;;;;12.32;19.26;92178.72;5014370;28;20469;-91
2022/02/01 07:41:08;;;;;;;1.27;0.60;;;;;;;11.96;18.21;92171.78;5021004;28;20450;-90
2022/02/01 07:43:55;;;;;;;0.60;0.60;;;;;;;12.22;17.80;92140.38;5024261;28;20033;-90
2022/02/01 07:46:28;;;;;;;4.75;0.70;;;;;;;11.57;18.12;92178.47;5017804;28;20047;-89
2022/02/01 07:49:34;;;;;;;0.83;0.70;;;;;;;13.81;16.85;92175.91;5022901;28;20071;-90
2022/02/01 07:52:09;;;;;;;0.50;0.50;;;;;;;14.95;15.75;92224.44;5036034;28;20025;-90
2022/02/01 07:54:38;;;;;;;0.50;0.50;;;;;;;13.94;16.21;92203.13;5002831;28;20103;-90
2022/02/01 07:57:06;;;;;;;0.40;0.40;;;;;;;14.53;15.93;92186.66;5038312;28;20017;-90
2022/02/01 07:59:39;;;;;;;0.57;0.57;;;;;;;13.64;17.28;92194.34;5031098;28;20038;-90
2022/02/01 08:02:38;;;;;;;;;;;;;;;;;;;;;
2022/02/01 08:05:24;;;;;;;;;;;;;;;;;;;;;
2022/02/01 08:08:30;;;;;;;0.50;0.50;;;;;;;12.88;17.02;92192.91;5037301;28;20394;-92
2022/02/01 08:17:13;;;;;;;1.35;0.57;;;;;;;13.87;16.78;92215.97;5037151;28;20048;-92
2022/02/01 08:20:36;;;;;;;1.23;0.70;;;;;;;15.09;16.09;92253.19;5025129;28;20037;-90
2022/02/01 08:23:20;;;;;;;0.60;0.60;;;;;;;13.01;16.31;92214.88;5008810;28;20042;-91
2022/02/01 08:26:11;;;;;;;0.50;0.50;;;;;;;14.56;15.34;92199.97;5022537;28;20163;-91
2022/02/01 08:29:38;;;;;;;4.10;0.63;;;;;;;14.98;15.04;92246.75;5014586;28;20057;-93
2022/02/01 08:32:20;;;;;;;0.40;0.40;;;;;;;16.42;14.07;92205.81;5043788;28;20052;-92
2022/02/01 08:35:23;;;;;;;0.40;0.40;;;;;;;18.00;13.45;92263.44;5004652;28;20060;-91
2022/02/01 08:38:08;;;;;;;0.40;0.40;;;;;;;17.60;13.24;92334.88;5023650;28;20486;-91
2022/02/01 08:40:52;;;;;;;0.30;0.30;;;;;;;13.13;16.15;92222.94;5020211;28;20033;-91
2022/02/01 08:43:37;;;;;;;0.30;0.30;;;;;;;13.25;16.60;92245.97;5014730;28;20454;-91
2022/02/01 08:46:22;;;;;;;0.52;0.30;;;;;;;13.53;17.74;92286.72;5016582;28;20034;-90
2022/02/01 08:48:48;;;;;;;0.30;0.30;;;;;;;11.94;18.62;92239.50;5003157;28;20068;-91
2022/02/01 08:51:39;;;;;;;0.35;0.30;;;;;;;9.43;19.86;92226.81;5002841;28;20053;-91
2022/02/01 08:54:32;;;;;;;0.82;0.40;;;;;;;9.60;20.39;92205.41;5001577;28;20058;-91
2022/02/01 08:57:34;;;;;;;0.30;0.30;;;;;;;9.26;20.40;92235.19;5021785;28;20128;-90
2022/02/01 09:00:11;;;;;;;0.52;0.50;;;;;;;9.46;20.92;92293.44;5021994;28;20041;-91
2022/02/01 09:02:40;;;;;;;0.40;0.40;;;;;;;9.41;20.78;92254.28;5003704;28;20052;-92
2022/02/01 09:05:29;;;;;;;0.40;0.40;;;;;;;9.05;20.78;92278.28;5023106;28;20060;-92
2022/02/01 09:08:05;;;;;;;;;;;;;;;;;;;;;
2022/02/01 09:10:57;;;;;;;0.30;0.30;;;;;;;9.12;21.82;92287.34;5034672;28;20044;-91
2022/02/01 09:13:30;;;;;;;0.57;0.32;;;;;;;8.75;22.17;92282.84;5014693;28;20084;-90
2022/02/01 09:16:18;;;;;;;0.55;0.30;;;;;;;9.09;21.84;92258.41;5037231;28;20034;-92
2022/02/01 09:19:05;;;;;;;0.25;0.25;;;;;;;9.82;21.22;92253.66;5000787;28;20533;-93
2022/02/01 09:21:54;;;;;;;1.45;0.40;;;;;;;8.99;20.94;92253.31;4985027;28;20084;-92
2022/02/01 09:28:00;;;;;;;0.55;0.55;;;;;;;9.27;21.74;92281.13;5016720;28;20041;-92
2022/02/01 09:31:01;;;;;;;0.30;0.30;;;;;;;8.87;21.29;92246.69;5038558;28;20029;-93
2022/02/01 09:34:04;;;;;;;;;;;;;;;;;;;;;
2022/02/01 09:39:28;;;;;;;0.38;0.30;;;;;;;9.10;21.60;92271.19;4980509;28;20065;-91
2022/02/01 09:42:04;;;;;;;;;;;;;;;;;;;;;
2022/02/01 09:44:45;;;;;;;0.30;0.30;;;;;;;8.55;20.70;92245.47;5033438;28;20041;-91
2022/02/01 09:47:46;;;;;;;2.55;0.40;;;;;;;8.58;21.91;92347.72;5030438;28;20048;-91
2022/02/01 09:50:28;;;;;;;2.88;0.47;;;;;;;9.10;21.53;92273.03;5036137;28;20505;-91
2022/02/01 09:53:04;;;;;;;0.35;0.30;;;;;;;9.67;21.06;92304.34;5019421;28;20051;-91
2022/02/01 09:55:45;;;;;;;0.40;0.40;;;;;;;9.66;21.65;92316.66;5022247;28;20048;-91
2022/02/01 09:58:37;;;;;;;0.28;0.28;;;;;;;10.38;21.02;92344.31;5004169;28;20057;-90
2022/02/01 10:01:44;;;;;;;0.53;0.40;;;;;;;10.38;20.92;92323.38;5015156;28;20056;-91
2022/02/01 10:04:43;;;;;;;3.50;0.45;;;;;;;10.61;20.64;92243.16;5039490;28;20418;-91
2022/02/01 10:07:32;;;;;;;;;;;;;;;;;;;;;
2022/02/01 10:10:27;;;;;;;0.30;0.30;;;;;;;10.99;18.94;92337.97;5035779;28;20045;-90
2022/02/01 10:13:17;;;;;;;0.30;0.30;;;;;;;10.99;19.54;92296.06;5035770;28;20391;-90
2022/02/01 10:22:10;;;;;;;0.30;0.30;;;;;;;11.04;20.56;92280.25;5012603;28;20045;-91
2022/02/01 10:28:03;;;;;;;0.80;0.35;;;;;;;10.04;19.88;92290.41;5051576;28;20045;-91
2022/02/01 10:31:06;;;;;;;0.30;0.30;;;;;;;10.57;19.87;92326.69;5036338;28;20076;-92
2022/02/01 10:34:01;;;;;;;0.40;0.40;;;;;;;10.51;18.81;92293.06;5052557;28;20043;-91
2022/02/01 10:37:22;;;;;;;0.43;0.40;;;;;;;11.13;19.59;92342.44;5019672;28;20381;-90
2022/02/01 10:40:17;;;;;;;0.30;0.30;;;;;;;9.82;18.97;92285.81;5015695;28;20049;-92
2022/02/01 10:43:50;;;;;;;0.80;0.40;;;;;;;10.54;20.04;92324.66;5005298;28;20063;-91
2022/02/01 10:46:54;;;;;;;0.22;0.22;;;;;;;10.35;19.39;92282.09;5016171;28;20041;-92
2022/02/01 10:49:32;;;;;;;0.30;0.30;;;;;;;10.19;19.39;92266.63;5018464;28;20090;-92
2022/02/01 10:52:36;;;;;;;0.50;0.40;;;;;;;10.72;19.44;92262.06;5018041;28;20037;-92
2022/02/01 10:55:20;;;;;;;0.50;0.40;;;;;;;10.83;19.75;92258.16;5015774;28;20029;-92
2022/02/01 10:58:18;;;;;;;0.30;0.30;;;;;;;11.19;19.10;92267.88;5032891;28;20046;-92
2022/02/01 11:01:06;;;;;;;0.43;0.40;;;;;;;11.01;19.09;92254.66;5033808;28;20053;-92
2022/02/01 11:06:50;;;;;;;0.50;0.50;;;;;;;11.13;19.08;92293.44;5018193;28;20486;-91
2022/02/01 11:09:33;;;;;;;0.77;0.50;;;;;;;11.07;19.62;92247.44;5008998;28;20037;-91
2022/02/01 11:13:01;;;;;;;;;;;;;;;;;;;;;
2022/02/01 11:15:33;;;;;;;0.30;0.30;;;;;;;11.53;18.13;92230.72;5006865;28;20041;-92
2022/02/01 11:18:25;;;;;;;1.42;0.40;;;;;;;11.55;17.94;92236.44;5015561;28;20037;-91
2022/02/01 11:21:37;;;;;;;;;;;;;;;;;;;;;
2022/02/01 11:24:37;;;;;;;0.32;0.32;;;;;;;11.07;18.66;92236.97;5018198;28;20045;-91
2022/02/01 11:27:46;;;;;;;0.30;0.30;;;;;;;10.52;18.34;92229.97;5018711;28;20100;-91
2022/02/01 11:30:34;;;;;;;0.30;0.30;;;;;;;11.03;19.15;92260.38;5015249;28;20043;-88
2022/02/01 11:33:11;;;;;;;0.47;0.47;;;;;;;11.05;18.99;92218.16;5057718;28;20040;-91
2022/02/01 11:36:03;;;;;;;0.30;0.30;;;;;;;11.83;18.39;92218.72;5007831;28;20565;-90
2022/02/01 11:38:40;;;;;;;1.08;0.30;;;;;;;11.87;17.72;92219.72;5002663;28;20045;-89
2022/02/01 11:41:31;;;;;;;0.52;0.40;;;;;;;12.09;18.89;92220.75;5017839;28;20060;-90
2022/02/01 11:44:38;;;;;;;0.38;0.38;;;;;;;12.67;17.79;92271.47;5035092;28;20041;-89
2022/02/01 11:47:21;;;;;;;0.38;0.30;;;;;;;12.85;17.38;92217.16;5016965;28;20033;-89
2022/02/01 11:53:36;;;;;;;0.30;0.30;;;;;;;13.24;16.83;92229.44;5036429;28;20397;-92
2022/02/01 11:56:37;;;;;;;0.30;0.30;;;;;;;13.33;16.97;92206.59;5019221;28;20034;-91
2022/02/01 11:59:34;;;;;;;;;;;;;;;;;;;;;
2022/02/01 12:02:33;;;;;;;0.40;0.40;;;;;;;13.54;16.92;92217.25;5018303;28;20111;-92
2022/02/01 12:05:39;;;;;;;0.30;0.30;;;;;;;13.27;16.75;92278.00;5035747;28;20045;-91
2022/02/01 12:09:52;;;;;;;;;;;;;;;;;;;;;
2022/02/01 12:11:54;;;;;;;0.47;0.40;;;;;;;13.35;17.27;92231.78;5006441;28;20049;-92
2022/02/01 12:14:27;;;;;;;0.30;0.30;;;;;;;12.13;17.19;92213.06;5015836;28;20025;-91
2022/02/01 12:17:12;;;;;;;0.30;0.30;;;;;;;11.96;16.91;92239.97;5017502;28;20043;-91
2022/02/01 12:20:07;;;;;;;;;;;;;;;;;;;;;
2022/02/01 12:22:53;;;;;;;1.25;0.40;;;;;;;12.69;17.59;92233.34;5035735;28;20391;-91
2022/02/01 12:25:33;;;;;;;0.40;0.30;;;;;;;12.64;17.50;92212.47;5002094;28;20457;-92
2022/02/01 12:28:34;;;;;;;0.30;0.30;;;;;;;12.33;17.94;92215.16;5018438;28;20111;-92
2022/02/01 12:31:37;;;;;;;;;;;;;;;;;;;;;
2022/02/01 12:34:15;;;;;;;0.32;0.32;;;;;;;12.21;17.89;92197.34;5034156;28;20037;-91
2022/02/01 12:37:15;;;;;;;0.30;0.30;;;;;;;12.25;17.32;92198.31;5000876;28;20045;-91
2022/02/01 12:40:12;;;;;;;0.80;0.50;;;;;;;12.87;17.86;92275.41;5008052;28;20041;-92
2022/02/01 12:42:52;;;;;;;0.93;0.40;;;;;;;12.73;18.03;92206.47;5022193;28;20120;-91
2022/02/01 12:48:28;;;;;;;0.35;0.35;;;;;;;12.36;18.02;92192.75;5048218;28;20049;-92
2022/02/01 12:51:12;;;;;;;0.40;0.40;;;;;;;12.94;17.18;92249.47;5038321;28;20093;-92
2022/02/01 12:53:55;;;;;;;0.75;0.45;;;;;;;12.43;18.03;92199.13;5011334;28;20033;-92
2022/02/01 12:56:31;;;;;;;0.40;0.40;;;;;;;13.00;17.84;92179.19;5010142;28;20034;-91
2022/02/01 12:59:22;;;;;;;0.30;0.30;;;;;;;13.46;17.35;92233.78;5017307;28;20069;-92
2022/02/01 13:02:25;;;;;;;;;;;;;;;;;;;;;
2022/02/01 13:05:33;;;;;;;;;;;;;;;;;;;;;
2022/02/01 13:08:38;;;;;;;0.68;0.40;;;;;;;13.04;17.73;92207.16;5021573;28;20045;-92
2022/02/01 13:20:28;;;;;;;0.30;0.30;;;;;;;13.36;17.26;92244.63;5036998;28;20041;-91
2022/02/01 13:23:09;;;;;;;1.30;0.90;;;;;;;13.15;18.47;92241.81;5018935;28;20036;-91
2022/02/01 13:25:52;;;;;;;1.90;0.40;;;;;;;13.34;17.88;92204.72;5019715;28;20065;-92
2022/02/01 13:28:35;;;;;;;0.40;0.40;;;;;;;13.62;17.53;92233.31;5035698;28;20037;-91
2022/02/01 13:31:29;;;;;;;;;;;;;;;;;;;;;
2022/02/01 13:34:15;;;;;;;;;;;;;;;;;;;;;
2022/02/01 13:37:05;;;;;;;0.40;0.40;;;;;;;12.16;18.74;92168.63;5014464;28;20120;-92
2022/02/01 13:40:06;;;;;;;1.85;0.50;;;;;;;12.70;18.49;92184.22;5016651;28;20037;-92
2022/02/01 13:42:57;;;;;;;;;;;;;;;;;;;;;
2022/02/01 13:46:03;;;;;;;0.50;0.50;;;;;;;12.93;18.55;92194.63;5019250;28;20077;-92
2022/02/01 13:48:55;;;;;;;0.35;0.35;;;;;;;13.20;18.67;92244.28;5014581;28;20121;-92
2022/02/01 13:52:01;;;;;;;0.45;0.40;;;;;;;12.86;18.98;92153.81;5016140;28;20053;-92
2022/02/01 13:55:24;;;;;;;0.30;0.30;;;;;;;13.24;18.33;92213.66;5014276;28;20045;-92
2022/02/01 13:58:12;;;;;;;;;;;;;;;;;;;;;
2022/02/01 14:01:04;;;;;;;;;;;;;;;;;;;;;
2022/02/01 14:04:12;;;;;;;;;;;;;;;;;;;;;
2022/02/01 14:10:22;;;;;;;;;;;;;;;;;;;;;
2022/02/01 14:13:44;;;;;;;0.57;0.35;;;;;;;13.15;19.11;92170.84;5051472;28;20102;-93
2022/02/01 14:34:29;;;;;;;0.52;0.40;;;;;;;13.41;18.96;92202.41;5041116;28;20097;-94
2022/02/01 14:37:46;;;;;;;0.30;0.30;;;;;;;13.02;19.27;92156.00;5040583;28;20072;-92
2022/02/01 14:46:35;;;;;;;0.30;0.30;;;;;;;13.28;19.34;92142.88;4987074;28;20034;-92
2022/02/01 14:49:19;;;;;;;0.40;0.40;;;;;;;13.64;19.55;92189.84;5019605;28;20043;-93
2022/02/01 14:52:09;;;;;;;;;;;;;;;;;;;;;
2022/02/01 14:55:01;;;;;;;0.43;0.40;;;;;;;12.96;20.27;92131.72;5036938;28;20063;-93
2022/02/01 15:15:21;;;;;;;;;;;;;;;;;;;;;
2022/02/01 15:17:53;;;;;;;2.47;0.40;;;;;;;12.40;22.06;92138.59;5032371;28;20049;-92
2022/02/01 15:23:49;;;;;;;0.30;0.30;;;;;;;12.19;21.76;92146.25;5038468;28;20124;-91
2022/02/01 15:26:36;;;;;;;0.40;0.40;;;;;;;12.24;22.45;92153.97;5017743;28;20513;-92
2022/02/01 15:29:32;;;;;;;0.40;0.40;;;;;;;11.74;22.22;92134.00;5003802;28;20510;-92
2022/02/01 15:32:28;;;;;;;0.45;0.40;;;;;;;10.66;23.10;92087.84;5036742;28;20032;-92
2022/02/01 15:35:14;;;;;;;0.20;0.20;;;;;;;10.36;24.01;92075.13;5019117;28;20033;-93
2022/02/01 15:38:06;;;;;;;0.38;0.30;;;;;;;10.60;24.17;92132.44;5001797;28;20049;-92
2022/02/01 15:58:46;;;;;;;0.30;0.30;;;;;;;8.32;28.29;92178.44;5051013;28;20028;-92
2022/02/01 16:01:34;;;;;;;0.52;0.50;;;;;;;7.88;28.31;92122.09;4990721;28;20037;-93
2022/02/01 16:04:31;;;;;;;0.40;0.40;;;;;;;7.75;29.40;92141.03;5018132;28;20045;-93
2022/02/01 16:07:32;;;;;;;0.40;0.40;;;;;;;7.40;29.59;92122.06;5006629;28;20033;-92
2022/02/01 16:10:47;;;;;;;;;;;;;;;;;;;;;
2022/02/01 16:13:42;;;;;;;0.40;0.40;;;;;;;7.44;29.79;92167.34;5040514;28;20040;-92
2022/02/01 16:16:26;;;;;;;0.30;0.30;;;;;;;7.13;30.34;92144.16;5026531;28;20116;-91
2022/02/01 16:19:13;;;;;;;0.30;0.30;;;;;;;7.38;30.37;92181.47;5018015;28;20338;-93
2022/02/01 16:22:21;;;;;;;;;;;;;;;;;;;;;
2022/02/01 16:24:57;;;;;;;0.40;0.40;;;;;;;7.26;31.08;92171.41;5033809;28;20063;-92
2022/02/01 16:27:30;;;;;;;0.40;0.40;;;;;;;6.82;31.47;92139.19;5022895;28;20043;-91
2022/02/01 16:30:19;;;;;;;0.40;0.40;;;;;;;6.63;32.15;92146.09;5028274;28;20474;-91
2022/02/01 16:33:03;;;;;;;;;;;;;;;;;;;;;
2022/02/01 16:35:54;;;;;;;2.17;0.57;;;;;;;6.63;32.76;92179.91;5011537;28;20037;-91
2022/02/01 16:38:33;;;;;;;0.30;0.30;;;;;;;6.32;32.74;92146.25;5015886;28;20132;-92
2022/02/01 16:41:52;;;;;;;0.73;0.52;;;;;;;6.42;33.12;92174.81;5000434;28;20041;-91
2022/02/01 16:44:46;;;;;;;0.30;0.30;;;;;;;6.68;33.41;92221.47;5015358;28;20045;-93
2022/02/01 16:47:25;;;;;;;0.50;0.43;;;;;;;6.47;33.51;92181.78;4990260;28;20053;-91
2022/02/01 16:54:29;;;;;;;0.40;0.40;;;;;;;6.50;33.67;92217.66;5033569;28;20049;-91
2022/02/01 16:57:10;;;;;;;;;;;;;;;;;;;;;
2022/02/01 17:00:13;;;;;;;0.30;0.30;;;;;;;6.05;34.04;92159.59;5009843;28;20544;-91
2022/02/01 17:06:26;;;;;;;0.30;0.30;;;;;;;6.27;34.95;92206.06;5043146;28;20402;-90
2022/02/01 17:09:32;;;;;;;;;;;;;;;;;;;;;
2022/02/01 17:12:54;;;;;;;;;;;;;;;;;;;;;
2022/02/01 17:21:57;;;;;;;0.40;0.40;;;;;;;5.84;35.53;92138.88;5004437;28;20083;-91
2022/02/01 17:24:33;;;;;;;0.20;0.20;;;;;;;5.95;35.73;92165.63;5037555;28;20042;-90
2022/02/01 17:27:20;;;;;;;;;;;;;;;;;;;;;
2022/02/01 17:30:24;;;;;;;0.40;0.40;;;;;;;5.76;36.19;92149.78;5050430;28;20041;-90
2022/02/01 17:33:17;;;;;;;3.85;1.75;;;;;;;5.74;36.22;92153.69;5016757;28;20132;-90
2022/02/01 17:36:18;;;;;;;0.82;0.50;;;;;;;5.68;36.42;92178.91;5008773;28;20037;-89